Time,TemperatureF,DewpointF,PressureIn,WindDirection,WindDirectionDegrees,WindSpeedMPH,WindSpeedGustMPH,Humidity,HourlyPrecipIn,Conditions,Clouds,dailyrainin,SolarRadiationWatts/m^2,SoftwareType,DateUTC
2013-01-07 00:22:00,55.0,-24.0,-100.00,North,11,6.0,47.0,3,0.00,,,0.00,0.000000,,2013-01-07 10:22:00,
2013-01-07 00:32:00,55.0,-24.0,-100.00,North,11,6.0,47.0,3,0.00,,,0.00,0.000000,,2013-01-07 10:32:00,
2013-01-07 00:42:00,55.0,-24.0,-100.00,North,11,6.0,47.0,3,0.00,,,0.00,0.000000,,2013-01-07 10:42:00,
2013-01-07 00:52:00,55.0,-24.0,-100.00,North,11,6.0,47.0,3,0.00,,,0.00,0.000000,,2013-01-07 10:52:00,
2013-01-07 01:22:00,55.0,-24.0,-100.00,NE,44,11.0,25.0,3,0.00,,,0.00,0.000000,,2013-01-07 11:22:00,
2013-01-07 01:32:00,55.0,-24.0,-100.00,NE,44,11.0,25.0,3,0.00,,,0.00,0.000000,,2013-01-07 11:32:00,
2013-01-07 01:43:00,55.0,-24.0,-100.00,NE,44,11.0,25.0,3,0.00,,,0.00,0.000000,,2013-01-07 11:43:00,
2013-01-07 01:52:00,55.0,-24.0,-100.00,NE,44,11.0,25.0,3,0.00,,,0.00,0.000000,,2013-01-07 11:52:00,
2013-01-07 02:22:00,51.0,-27.0,-100.00,NNE,16,5.0,20.0,3,0.00,,,0.00,0.000000,,2013-01-07 12:22:00,
2013-01-07 02:32:00,51.0,-27.0,-100.00,NNE,16,5.0,20.0,3,0.00,,,0.00,0.000000,,2013-01-07 12:32:00,
2013-01-07 02:43:00,51.0,-27.0,-100.00,NNE,16,5.0,20.0,3,0.00,,,0.00,0.000000,,2013-01-07 12:43:00,
2013-01-07 02:52:00,51.0,-27.0,-100.00,NNE,16,5.0,20.0,3,0.00,,,0.00,0.000000,,2013-01-07 12:52:00,
2013-01-07 03:23:00,58.0,-22.0,-100.00,ENE,62,7.0,17.0,3,0.00,,,0.00,0.000000,,2013-01-07 13:23:00,
2013-01-07 03:33:00,58.0,-22.0,-100.00,ENE,62,7.0,17.0,3,0.00,,,0.00,0.000000,,2013-01-07 13:33:00,
2013-01-07 03:42:00,58.0,-22.0,-100.00,ENE,62,7.0,17.0,3,0.00,,,0.00,0.000000,,2013-01-07 13:42:00,
2013-01-07 03:52:00,58.0,-22.0,-100.00,ENE,62,7.0,17.0,3,0.00,,,0.00,0.000000,,2013-01-07 13:52:00,
2013-01-07 04:22:00,60.0,-21.0,-100.00,ESE,106,16.0,42.0,3,0.00,,,0.00,0.000000,,2013-01-07 14:22:00,
2013-01-07 04:33:00,60.0,-21.0,-100.00,ESE,106,16.0,42.0,3,0.00,,,0.00,0.000000,,2013-01-07 14:33:00,
2013-01-07 04:42:00,60.0,-21.0,-100.00,ESE,106,16.0,42.0,3,0.00,,,0.00,0.000000,,2013-01-07 14:42:00,
2013-01-07 04:53:00,60.0,-21.0,-100.00,ESE,106,16.0,42.0,3,0.00,,,0.00,0.000000,,2013-01-07 14:53:00,
2013-01-07 05:22:00,59.0,-22.0,-100.00,ENE,76,9.0,30.0,3,0.00,,,0.00,0.000000,,2013-01-07 15:22:00,
2013-01-07 05:33:00,59.0,-22.0,-100.00,ENE,76,9.0,30.0,3,0.00,,,0.00,0.000000,,2013-01-07 15:33:00,
2013-01-07 05:42:00,59.0,-22.0,-100.00,ENE,76,9.0,30.0,3,0.00,,,0.00,0.000000,,2013-01-07 15:42:00,
2013-01-07 05:52:00,59.0,-22.0,-100.00,ENE,76,9.0,30.0,3,0.00,,,0.00,0.000000,,2013-01-07 15:52:00,
2013-01-07 06:22:00,54.0,-25.0,-100.00,North,358,8.0,25.0,3,0.00,,,0.00,0.000000,,2013-01-07 16:22:00,
2013-01-07 06:33:00,54.0,-25.0,-100.00,North,358,8.0,25.0,3,0.00,,,0.00,0.000000,,2013-01-07 16:33:00,
2013-01-07 06:43:00,54.0,-25.0,-100.00,North,358,8.0,25.0,3,0.00,,,0.00,0.000000,,2013-01-07 16:43:00,
2013-01-07 06:52:00,54.0,-25.0,-100.00,North,358,8.0,25.0,3,0.00,,,0.00,0.000000,,2013-01-07 16:52:00,
2013-01-07 07:22:00,54.0,-25.0,-100.00,North,352,8.0,18.0,3,0.00,,,0.00,0.000000,,2013-01-07 17:22:00,
2013-01-07 07:32:00,54.0,-25.0,-100.00,North,352,8.0,18.0,3,0.00,,,0.00,0.000000,,2013-01-07 17:32:00,
2013-01-07 07:42:00,54.0,-25.0,-100.00,North,352,8.0,18.0,3,0.00,,,0.00,0.000000,,2013-01-07 17:42:00,
2013-01-07 07:52:00,54.0,-25.0,-100.00,North,352,8.0,18.0,3,0.00,,,0.00,0.000000,,2013-01-07 17:52:00,
2013-01-07 08:23:00,55.0,-24.0,-100.00,NNE,33,5.0,14.0,3,0.00,,,0.00,66.000000,,2013-01-07 18:23:00,
2013-01-07 08:32:00,55.0,-24.0,-100.00,NNE,33,5.0,14.0,3,0.00,,,0.00,66.000000,,2013-01-07 18:32:00,
2013-01-07 08:42:00,55.0,-24.0,-100.00,NNE,33,5.0,14.0,3,0.00,,,0.00,66.000000,,2013-01-07 18:42:00,
2013-01-07 08:52:00,55.0,-24.0,-100.00,NNE,33,5.0,14.0,3,0.00,,,0.00,66.000000,,2013-01-07 18:52:00,
2013-01-07 09:22:00,59.0,-22.0,-100.00,North,352,5.0,10.0,3,0.00,,,0.00,266.000000,,2013-01-07 19:22:00,
2013-01-07 09:33:00,59.0,-22.0,-100.00,North,352,5.0,10.0,3,0.00,,,0.00,266.000000,,2013-01-07 19:33:00,
2013-01-07 09:42:00,59.0,-22.0,-100.00,North,352,5.0,10.0,3,0.00,,,0.00,266.000000,,2013-01-07 19:42:00,
2013-01-07 09:52:00,59.0,-22.0,-100.00,North,352,5.0,10.0,3,0.00,,,0.00,266.000000,,2013-01-07 19:52:00,
2013-01-07 10:22:00,62.0,-20.0,-100.00,NNW,347,8.0,13.0,3,0.00,,,0.00,483.000000,,2013-01-07 20:22:00,
2013-01-07 10:33:00,62.0,-20.0,-100.00,NNW,347,8.0,13.0,3,0.00,,,0.00,483.000000,,2013-01-07 20:33:00,
2013-01-07 10:42:00,62.0,-20.0,-100.00,NNW,347,8.0,13.0,3,0.00,,,0.00,483.000000,,2013-01-07 20:42:00,
2013-01-07 10:52:00,62.0,-20.0,-100.00,NNW,347,8.0,13.0,3,0.00,,,0.00,483.000000,,2013-01-07 20:52:00,
2013-01-07 11:22:00,63.0,-19.0,-100.00,North,356,9.0,17.0,3,0.00,,,0.00,689.000000,,2013-01-07 21:22:00,
2013-01-07 11:32:00,63.0,-19.0,-100.00,North,356,9.0,17.0,3,0.00,,,0.00,689.000000,,2013-01-07 21:32:00,
2013-01-07 11:42:00,63.0,-19.0,-100.00,North,356,9.0,17.0,3,0.00,,,0.00,689.000000,,2013-01-07 21:42:00,
2013-01-07 11:52:00,63.0,-19.0,-100.00,North,356,9.0,17.0,3,0.00,,,0.00,689.000000,,2013-01-07 21:52:00,
2013-01-07 12:22:00,61.0,-20.0,-100.00,NW,321,12.0,17.0,3,0.00,,,0.00,573.000000,,2013-01-07 22:22:00,
2013-01-07 12:33:00,61.0,-20.0,-100.00,NW,321,12.0,17.0,3,0.00,,,0.00,573.000000,,2013-01-07 22:33:00,
2013-01-07 12:42:00,61.0,-20.0,-100.00,NW,321,12.0,17.0,3,0.00,,,0.00,573.000000,,2013-01-07 22:42:00,
2013-01-07 12:52:00,61.0,-20.0,-100.00,NW,321,12.0,17.0,3,0.00,,,0.00,573.000000,,2013-01-07 22:52:00,
2013-01-07 13:22:00,67.0,-16.0,-100.00,North,350,10.0,19.0,3,0.00,,,0.00,818.000000,,2013-01-07 23:22:00,
2013-01-07 13:32:00,67.0,-16.0,-100.00,North,350,10.0,19.0,3,0.00,,,0.00,818.000000,,2013-01-07 23:32:00,
2013-01-07 13:42:00,67.0,-16.0,-100.00,North,350,10.0,19.0,3,0.00,,,0.00,818.000000,,2013-01-07 23:42:00,
2013-01-07 13:52:00,67.0,-16.0,-100.00,North,350,10.0,19.0,3,0.00,,,0.00,818.000000,,2013-01-07 23:52:00,
2013-01-07 14:22:00,66.0,-17.0,-100.00,NNW,331,12.0,23.0,3,0.00,,,0.00,672.000000,,2013-01-08 00:22:00,
2013-01-07 14:32:00,66.0,-17.0,-100.00,NNW,331,12.0,23.0,3,0.00,,,0.00,672.000000,,2013-01-08 00:32:00,
2013-01-07 14:42:00,66.0,-17.0,-100.00,NNW,331,12.0,23.0,3,0.00,,,0.00,672.000000,,2013-01-08 00:42:00,
2013-01-07 14:52:00,66.0,-17.0,-100.00,NNW,331,12.0,23.0,3,0.00,,,0.00,672.000000,,2013-01-08 00:52:00,
2013-01-07 15:22:00,66.0,-17.0,-100.00,NW,314,10.0,22.0,3,0.00,,,0.00,631.000000,,2013-01-08 01:22:00,
2013-01-07 15:32:00,66.0,-17.0,-100.00,NW,314,10.0,22.0,3,0.00,,,0.00,631.000000,,2013-01-08 01:32:00,
2013-01-07 15:42:00,66.0,-17.0,-100.00,NW,314,10.0,22.0,3,0.00,,,0.00,631.000000,,2013-01-08 01:42:00,
2013-01-07 15:52:00,66.0,-17.0,-100.00,NW,314,10.0,22.0,3,0.00,,,0.00,631.000000,,2013-01-08 01:52:00,
2013-01-07 16:22:00,66.0,-17.0,-100.00,WNW,300,9.0,18.0,3,0.00,,,0.00,526.000000,,2013-01-08 02:22:00,
2013-01-07 16:32:00,66.0,-17.0,-100.00,WNW,300,9.0,18.0,3,0.00,,,0.00,526.000000,,2013-01-08 02:32:00,
2013-01-07 16:42:00,66.0,-17.0,-100.00,WNW,300,9.0,18.0,3,0.00,,,0.00,526.000000,,2013-01-08 02:42:00,
2013-01-07 16:52:00,66.0,-17.0,-100.00,WNW,300,9.0,18.0,3,0.00,,,0.00,526.000000,,2013-01-08 02:52:00,
2013-01-07 17:22:00,63.0,-19.0,-100.00,WNW,283,8.0,16.0,3,0.00,,,0.00,301.000000,,2013-01-08 03:22:00,
2013-01-07 17:32:00,63.0,-19.0,-100.00,WNW,283,8.0,16.0,3,0.00,,,0.00,301.000000,,2013-01-08 03:32:00,
2013-01-07 17:42:00,63.0,-19.0,-100.00,WNW,283,8.0,16.0,3,0.00,,,0.00,301.000000,,2013-01-08 03:42:00,
2013-01-07 17:52:00,63.0,-19.0,-100.00,WNW,283,8.0,16.0,3,0.00,,,0.00,301.000000,,2013-01-08 03:52:00,
2013-01-07 18:22:00,60.0,-21.0,-100.00,West,263,7.0,16.0,3,0.00,,,0.00,91.000000,,2013-01-08 04:22:00,
2013-01-07 18:32:00,60.0,-21.0,-100.00,West,263,7.0,16.0,3,0.00,,,0.00,91.000000,,2013-01-08 04:32:00,
2013-01-07 18:42:00,60.0,-21.0,-100.00,West,263,7.0,16.0,3,0.00,,,0.00,91.000000,,2013-01-08 04:42:00,
2013-01-07 18:52:00,60.0,-21.0,-100.00,West,263,7.0,16.0,3,0.00,,,0.00,91.000000,,2013-01-08 04:52:00,
2013-01-07 19:22:00,56.0,-24.0,-100.00,SSW,209,6.0,12.0,3,0.00,,,0.00,1.000000,,2013-01-08 05:22:00,
2013-01-07 19:33:00,56.0,-24.0,-100.00,SSW,209,6.0,12.0,3,0.00,,,0.00,1.000000,,2013-01-08 05:33:00,
2013-01-07 19:42:00,56.0,-24.0,-100.00,SSW,209,6.0,12.0,3,0.00,,,0.00,1.000000,,2013-01-08 05:42:00,
2013-01-07 19:52:00,56.0,-24.0,-100.00,SSW,209,6.0,12.0,3,0.00,,,0.00,1.000000,,2013-01-08 05:52:00,
2013-01-07 20:22:00,56.0,-24.0,-100.00,ENE,75,3.0,16.0,3,0.00,,,0.00,0.000000,,2013-01-08 06:22:00,
2013-01-07 20:32:00,56.0,-24.0,-100.00,ENE,75,3.0,16.0,3,0.00,,,0.00,0.000000,,2013-01-08 06:32:00,
2013-01-07 20:42:00,56.0,-24.0,-100.00,ENE,75,3.0,16.0,3,0.00,,,0.00,0.000000,,2013-01-08 06:42:00,
2013-01-07 20:52:00,56.0,-24.0,-100.00,ENE,75,3.0,16.0,3,0.00,,,0.00,0.000000,,2013-01-08 06:52:00,
2013-01-07 21:22:00,57.0,-23.0,-100.00,ESE,116,12.0,12.0,3,0.00,,,0.00,0.000000,,2013-01-08 07:22:00,
2013-01-07 21:32:00,57.0,-23.0,-100.00,ESE,116,12.0,12.0,3,0.00,,,0.00,0.000000,,2013-01-08 07:32:00,
2013-01-07 21:42:00,57.0,-23.0,-100.00,ESE,116,12.0,12.0,3,0.00,,,0.00,0.000000,,2013-01-08 07:42:00,
2013-01-07 21:52:00,57.0,-23.0,-100.00,ESE,116,12.0,12.0,3,0.00,,,0.00,0.000000,,2013-01-08 07:52:00,
2013-01-07 22:22:00,59.0,-22.0,-100.00,ESE,115,20.0,35.0,3,0.00,,,0.00,0.000000,,2013-01-08 08:22:00,
2013-01-07 22:32:00,59.0,-22.0,-100.00,ESE,115,20.0,35.0,3,0.00,,,0.00,0.000000,,2013-01-08 08:32:00,
2013-01-07 22:42:00,59.0,-22.0,-100.00,ESE,115,20.0,35.0,3,0.00,,,0.00,0.000000,,2013-01-08 08:42:00,
2013-01-07 22:52:00,59.0,-22.0,-100.00,ESE,115,20.0,35.0,3,0.00,,,0.00,0.000000,,2013-01-08 08:52:00,
2013-01-07 23:22:00,59.0,-22.0,-100.00,ESE,113,19.0,35.0,3,0.00,,,0.00,0.000000,,2013-01-08 09:22:00,
2013-01-07 23:32:00,59.0,-22.0,-100.00,ESE,113,19.0,35.0,3,0.00,,,0.00,0.000000,,2013-01-08 09:32:00,
2013-01-07 23:42:00,59.0,-22.0,-100.00,ESE,113,19.0,35.0,3,0.00,,,0.00,0.000000,,2013-01-08 09:42:00,
2013-01-07 23:52:00,59.0,-22.0,-100.00,ESE,113,19.0,35.0,3,0.00,,,0.00,0.000000,,2013-01-08 09:52:00,